createdAt,value
2019-06-10T00:04:38.427Z,4.10
2019-06-10T00:09:47.887Z,4.30
2019-06-10T00:14:54.519Z,4.50
2019-06-10T00:20:03.345Z,4.03
2019-06-10T00:25:11.819Z,4.53
2019-06-10T00:30:20.704Z,4.78
2019-06-10T00:35:26.055Z,5.10
2019-06-10T00:40:32.434Z,5.00
2019-06-10T00:45:40.785Z,4.50
2019-06-10T00:50:47.172Z,4.83
2019-06-10T00:55:53.515Z,4.95
2019-06-10T01:01:02.358Z,4.65
2019-06-10T01:06:08.563Z,4.75
2019-06-10T01:11:21.543Z,4.30
2019-06-10T01:16:23.659Z,3.90
2019-06-10T01:21:31.358Z,4.20
2019-06-10T01:26:37.900Z,4.30
2019-06-10T01:31:44.251Z,4.50
2019-06-10T01:36:50.911Z,4.28
2019-06-10T01:41:57.475Z,4.00
2019-06-10T01:47:03.570Z,3.72
2019-06-10T01:52:12.428Z,3.90
2019-06-10T01:57:18.746Z,4.00
2019-06-10T02:02:26.235Z,4.12
2019-06-10T02:07:32.619Z,4.73
2019-06-10T02:12:41.449Z,4.40
2019-06-10T02:17:47.518Z,4.40
2019-06-10T02:22:54.319Z,4.95
2019-06-10T02:28:01.130Z,4.50
2019-06-10T02:33:11.979Z,5.70
2019-06-10T02:38:21.542Z,5.50
2019-06-10T02:43:31.905Z,6.58
2019-06-10T02:48:35.466Z,7.05
2019-06-10T02:53:43.360Z,7.00
2019-06-10T02:58:53.507Z,7.40
2019-06-10T03:03:58.882Z,7.67
2019-06-10T03:09:06.817Z,6.67
2019-06-10T03:14:13.900Z,6.70
2019-06-10T03:19:39.653Z,6.55
2019-06-10T03:24:28.304Z,6.27
2019-06-10T03:29:34.995Z,6.60
2019-06-10T03:34:47.032Z,6.20
2019-06-10T03:39:50.131Z,4.92
2019-06-10T03:44:56.498Z,5.25
2019-06-10T03:50:03.413Z,5.97
2019-06-10T03:55:12.192Z,6.00
2019-06-10T04:00:19.524Z,6.53
2019-06-10T04:05:27.007Z,6.75
2019-06-10T04:10:34.254Z,6.30
2019-06-10T04:15:42.908Z,6.33
2019-06-10T04:20:48.164Z,6.30
2019-06-10T04:25:54.589Z,6.37
2019-06-10T04:31:02.489Z,5.90
2019-06-10T04:36:09.535Z,6.07
2019-06-10T04:41:16.063Z,6.00
2019-06-10T04:46:24.596Z,6.40
2019-06-10T04:51:32.915Z,7.00
2019-06-10T04:56:38.543Z,6.45
2019-06-10T05:01:45.674Z,6.90
2019-06-10T05:06:52.768Z,6.85
2019-06-10T05:11:59.235Z,5.80
2019-06-10T05:17:05.355Z,5.17
2019-06-10T05:22:12.407Z,5.65
2019-06-10T05:27:20.431Z,5.70
2019-06-10T05:32:28.978Z,6.17
2019-06-10T05:37:35.436Z,5.90
2019-06-10T05:42:42.615Z,6.60
2019-06-10T05:47:49.545Z,5.55
2019-06-10T05:52:56.595Z,5.00
2019-06-10T05:58:02.984Z,4.30
2019-06-10T06:03:09.402Z,5.80
2019-06-10T06:08:15.785Z,6.58
2019-06-10T06:13:23.281Z,7.00
2019-06-10T06:18:30.020Z,7.08
2019-06-10T06:23:38.207Z,8.55
2019-06-10T06:28:45.303Z,8.87
2019-06-10T06:33:52.629Z,7.63
2019-06-10T06:38:59.413Z,7.80
2019-06-10T06:44:06.405Z,7.37
2019-06-10T06:49:13.053Z,8.00
2019-06-10T06:54:19.324Z,7.47
2019-06-10T06:59:25.816Z,7.40
2019-06-10T07:04:34.309Z,8.33
2019-06-10T07:09:43.209Z,7.85
2019-06-10T07:14:52.653Z,8.78
2019-06-10T07:19:59.376Z,8.40
2019-06-10T07:25:06.847Z,8.00
2019-06-10T07:30:15.199Z,7.97
2019-06-10T07:35:22.233Z,7.63
2019-06-10T07:40:28.639Z,7.53
2019-06-10T07:45:38.992Z,7.12
2019-06-10T07:51:22.377Z,6.95
2019-06-10T07:56:31.807Z,5.85
2019-06-10T08:01:37.645Z,6.72
2019-06-10T08:06:45.848Z,5.40
2019-06-10T08:11:53.289Z,5.87
2019-06-10T08:16:59.776Z,6.33
2019-06-10T08:22:06.653Z,4.83
2019-06-10T08:27:13.358Z,4.87
2019-06-10T08:32:19.727Z,4.17
2019-06-10T08:37:26.196Z,4.13
2019-06-10T08:42:32.613Z,5.22
2019-06-10T08:47:39.231Z,5.92
2019-06-10T08:53:03.958Z,5.35
2019-06-10T08:57:54.721Z,5.33
2019-06-10T09:03:03.835Z,6.03
2019-06-10T09:08:09.986Z,6.40
2019-06-10T09:13:16.418Z,5.93
2019-06-10T09:18:23.405Z,5.95
2019-06-10T09:23:30.111Z,5.78
2019-06-10T09:28:36.515Z,6.20
2019-06-10T09:33:49.925Z,5.92
2019-06-10T09:38:54.927Z,6.00
2019-06-10T09:43:59.043Z,5.92
2019-06-10T09:49:06.318Z,4.97
2019-06-10T09:54:12.830Z,7.03
2019-06-10T09:59:19.048Z,6.90
2019-06-10T10:04:25.581Z,5.87
2019-06-10T10:09:36.814Z,6.00
2019-06-10T10:14:44.782Z,5.47
2019-06-10T10:19:54.260Z,5.70
2019-06-10T10:24:57.850Z,6.10
2019-06-10T10:30:06.673Z,5.90
2019-06-10T10:35:13.207Z,5.50
2019-06-10T10:40:19.891Z,5.70
2019-06-10T10:45:26.452Z,5.03
2019-06-10T10:50:38.716Z,5.20
2019-06-10T10:55:45.500Z,5.20
2019-06-10T11:00:54.946Z,4.60
2019-06-10T11:06:01.215Z,4.90
2019-06-10T11:11:07.795Z,4.80
2019-06-10T11:16:14.826Z,4.80
2019-06-10T11:21:22.847Z,4.70
2019-06-10T11:26:29.189Z,5.10
2019-06-10T11:31:35.283Z,4.30
2019-06-10T11:36:42.631Z,5.15
2019-06-10T11:41:50.891Z,4.90
2019-06-10T11:46:59.560Z,4.07
2019-06-10T11:52:05.488Z,3.90
2019-06-10T11:57:12.636Z,4.72
2019-06-10T12:02:19.703Z,4.43
2019-06-10T12:07:26.490Z,3.85
2019-06-10T12:12:33.946Z,4.62
2019-06-10T12:17:50.067Z,3.97
2019-06-10T12:22:49.554Z,4.03
2019-06-10T12:27:59.680Z,3.72
2019-06-10T12:33:05.626Z,3.90
2019-06-10T12:38:13.871Z,3.98
2019-06-10T12:43:22.930Z,3.40
2019-06-10T12:48:28.922Z,3.40
2019-06-10T12:53:47.075Z,3.10
2019-06-10T12:58:54.601Z,3.10
2019-06-10T13:04:05.428Z,3.23
2019-06-10T13:09:12.758Z,3.58
2019-06-10T13:14:18.521Z,3.70
2019-06-10T13:19:25.644Z,3.58
2019-06-10T13:24:33.752Z,3.50
2019-06-10T13:29:42.790Z,3.40
2019-06-10T13:34:48.220Z,3.70
2019-06-10T13:39:54.966Z,3.30
2019-06-10T13:45:04.835Z,3.17
2019-06-10T13:50:13.728Z,3.40
2019-06-10T13:55:19.195Z,3.20
2019-06-10T14:00:40.506Z,3.00
2019-06-10T14:05:34.632Z,2.80
2019-06-10T14:10:42.920Z,3.10
2019-06-10T14:15:49.539Z,3.00
2019-06-10T14:20:55.780Z,3.00
2019-06-10T14:26:03.178Z,2.80
2019-06-10T14:31:30.271Z,2.80
2019-06-10T14:36:18.380Z,2.80
2019-06-10T14:41:26.068Z,2.80
2019-06-10T14:46:33.022Z,2.80
2019-06-10T14:51:39.883Z,3.27
2019-06-10T14:56:52.947Z,2.98
2019-06-10T15:01:54.302Z,2.90
2019-06-10T15:07:02.895Z,2.90
2019-06-10T15:12:09.933Z,3.20
2019-06-10T15:17:16.895Z,3.00
2019-06-10T15:22:23.877Z,2.80
2019-06-10T15:27:33.880Z,3.23
2019-06-10T15:32:39.139Z,3.62
2019-06-10T15:37:45.641Z,3.50
2019-06-10T15:42:53.297Z,3.37
2019-06-10T15:48:02.519Z,3.43
2019-06-10T15:53:08.426Z,3.20
2019-06-10T15:58:15.987Z,3.13
2019-06-10T16:03:25.411Z,3.05
2019-06-10T16:08:32.463Z,3.20
2019-06-10T16:13:38.840Z,3.50
2019-06-10T16:18:45.249Z,3.65
2019-06-10T16:23:53.329Z,3.70
2019-06-10T16:28:59.972Z,3.83
2019-06-10T16:34:06.184Z,4.03
2019-06-10T16:39:12.757Z,3.90
2019-06-10T16:44:19.982Z,3.60
2019-06-10T16:49:27.265Z,3.60
2019-06-10T16:54:33.760Z,3.77
2019-06-10T16:59:42.875Z,3.37
2019-06-10T17:04:48.977Z,3.30
2019-06-10T17:09:55.864Z,3.67
2019-06-10T17:15:03.451Z,3.80
2019-06-10T17:20:09.907Z,3.60
2019-06-10T17:25:16.072Z,3.80
2019-06-10T17:30:25.198Z,3.40
2019-06-10T17:35:36.412Z,3.60
2019-06-10T17:40:38.661Z,3.73
2019-06-10T17:45:45.496Z,3.75
2019-06-10T17:50:52.613Z,4.10
2019-06-10T17:55:59.915Z,2.80
2019-06-10T18:01:06.094Z,2.35
2019-06-10T18:06:13.433Z,2.20
2019-06-10T18:11:19.900Z,2.37
2019-06-10T18:16:26.720Z,2.10
2019-06-10T18:21:36.255Z,1.80
2019-06-10T18:26:42.514Z,1.75
2019-06-10T18:31:48.664Z,1.70
2019-06-10T18:36:54.749Z,1.40
2019-06-10T18:42:03.416Z,1.70
2019-06-10T18:47:09.518Z,1.43
2019-06-10T18:52:16.666Z,1.62
2019-06-10T18:57:23.516Z,2.00
2019-06-10T19:02:30.327Z,2.30
2019-06-10T19:07:38.661Z,2.37
2019-06-10T19:12:45.487Z,2.30
2019-06-10T19:17:53.594Z,2.40
2019-06-10T19:23:02.253Z,2.73
2019-06-10T19:28:07.620Z,3.00
2019-06-10T19:33:14.356Z,3.22
2019-06-10T19:38:22.999Z,3.63
2019-06-10T19:43:28.979Z,3.60
2019-06-10T19:48:39.464Z,3.70
2019-06-10T19:53:45.119Z,3.58
2019-06-10T19:58:52.974Z,3.80
2019-06-10T20:04:02.499Z,4.10
2019-06-10T20:09:09.855Z,4.30
2019-06-10T20:14:16.264Z,4.90
2019-06-10T20:19:22.736Z,4.97
2019-06-10T20:24:30.246Z,4.90
2019-06-10T20:29:37.851Z,5.20
2019-06-10T20:34:44.632Z,5.08
2019-06-10T20:39:50.744Z,5.40
2019-06-10T20:44:57.143Z,5.57
2019-06-10T20:50:03.606Z,5.63
2019-06-10T20:55:12.577Z,6.20
2019-06-10T21:00:33.750Z,6.90
2019-06-10T21:05:41.577Z,6.40
2019-06-10T21:10:49.679Z,7.40
2019-06-10T21:15:59.151Z,8.00
2019-06-10T21:21:04.386Z,7.45
2019-06-10T21:26:12.973Z,7.17
2019-06-10T21:31:18.722Z,7.80
2019-06-10T21:36:24.966Z,7.87
2019-06-10T21:41:31.893Z,12.07
2019-06-10T21:46:38.072Z,12.90
2019-06-10T21:51:47.336Z,13.57
2019-06-10T21:56:55.377Z,12.65
2019-06-10T22:02:02.322Z,14.40
2019-06-10T22:07:09.237Z,15.40
2019-06-10T22:12:15.713Z,15.58
2019-06-10T22:17:22.505Z,14.65
2019-06-10T22:22:28.924Z,14.40
2019-06-10T22:27:35.378Z,15.33
2019-06-10T22:32:42.946Z,15.23
2019-06-10T22:37:49.705Z,14.53
2019-06-10T22:42:56.785Z,13.70
2019-06-10T22:48:03.247Z,13.63
2019-06-10T22:53:11.969Z,14.15
2019-06-10T22:58:17.873Z,14.58
2019-06-10T23:03:24.353Z,13.37
2019-06-10T23:08:33.265Z,13.65
2019-06-10T23:13:39.076Z,12.80
2019-06-10T23:18:45.116Z,12.98
2019-06-10T23:23:54.000Z,12.97
2019-06-10T23:29:00.259Z,13.43
2019-06-10T23:34:06.776Z,12.70
2019-06-10T23:39:13.314Z,13.08
2019-06-10T23:44:19.916Z,13.80
2019-06-10T23:49:26.201Z,14.67
2019-06-10T23:54:32.389Z,14.97
2019-06-10T23:59:38.766Z,14.53
